Terminal Aerodrome Forecast
Issued by NWS

Home | Current Version | Previous Version | Text Only | Print | Product List | Glossary On
Versions: 1 2 3 4 5 6 7 8 9 10 11 12 13 14 15 16 17 18 19
000
FTUS42 KMLB 180500 RRA
TAFTIX
TAF
KTIX 180543Z 1806/1906 09010KT P6SM VCSH SCT030 BKN050 OVC150
     FM181300 11012G18KT P6SM VCSH SCT015 BKN035 BKN060
     FM181900 14011G20KT P6SM SHRA VCTS SCT020 BKN040CB OVC060
     FM190500 16008KT P6SM VCSH BKN030 OVC050
      AMD NOT SKED TIL 181100=

USA.gov is the U.S. government's official web portal to all federal, state and local government web resources and services.